createdAt,value
2019-03-09T00:00:43.165Z,7.50
2019-03-09T00:03:12.603Z,7.50
2019-03-09T00:05:42.266Z,7.50
2019-03-09T00:08:12.099Z,7.60
2019-03-09T00:10:41.561Z,7.50
2019-03-09T00:13:11.511Z,7.50
2019-03-09T00:15:41.239Z,7.60
2019-03-09T00:18:10.653Z,7.60
2019-03-09T00:20:40.188Z,7.60
2019-03-09T00:23:27.563Z,7.60
2019-03-09T00:26:10.344Z,7.60
2019-03-09T00:28:50.700Z,7.50
2019-03-09T00:31:40.810Z,7.50
2019-03-09T00:34:10.410Z,7.50
2019-03-09T00:36:40.181Z,7.50
2019-03-09T00:39:09.760Z,7.50
2019-03-09T00:41:39.305Z,7.50
2019-03-09T00:44:08.912Z,7.50
2019-03-09T00:46:38.954Z,7.50
2019-03-09T00:49:08.367Z,7.50
2019-03-09T00:51:39.602Z,7.40
2019-03-09T00:54:09.213Z,7.40
2019-03-09T00:56:38.749Z,7.40
2019-03-09T00:59:08.211Z,7.40
2019-03-09T01:01:37.718Z,7.30
2019-03-09T01:04:07.257Z,7.30
2019-03-09T01:06:36.717Z,7.30
2019-03-09T01:09:07.919Z,7.30
2019-03-09T01:11:37.494Z,7.30
2019-03-09T01:14:07.206Z,7.30
2019-03-09T01:16:36.824Z,7.30
2019-03-09T01:19:06.332Z,7.30
2019-03-09T01:21:35.937Z,7.30
2019-03-09T01:24:05.513Z,7.20
2019-03-09T01:26:34.979Z,7.20
2019-03-09T01:29:04.415Z,7.20
2019-03-09T01:31:34.723Z,7.20
2019-03-09T01:34:04.256Z,7.20
2019-03-09T01:36:33.913Z,7.10
2019-03-09T01:39:03.404Z,7.10
2019-03-09T01:41:33.354Z,7.10
2019-03-09T01:44:03.235Z,7.10
2019-03-09T01:46:32.671Z,7.10
2019-03-09T01:49:02.391Z,7.10
2019-03-09T01:51:31.814Z,7.20
2019-03-09T01:54:01.509Z,7.20
2019-03-09T01:56:31.533Z,7.20
2019-03-09T01:59:02.976Z,7.20
2019-03-09T02:01:32.447Z,7.20
2019-03-09T02:04:02.000Z,7.10
2019-03-09T02:06:31.485Z,7.20
2019-03-09T02:09:01.301Z,7.20
2019-03-09T02:11:30.723Z,7.10
2019-03-09T02:14:01.555Z,7.20
2019-03-09T02:16:31.537Z,7.20
2019-03-09T02:19:01.401Z,7.20
2019-03-09T02:21:30.933Z,7.20
2019-03-09T02:24:00.386Z,7.20
2019-03-09T02:26:29.860Z,7.20
2019-03-09T02:29:01.162Z,7.10
2019-03-09T02:31:31.511Z,7.20
2019-03-09T02:34:01.339Z,7.20
2019-03-09T02:36:30.759Z,7.20
2019-03-09T02:39:02.095Z,7.20
2019-03-09T02:41:31.604Z,7.30
2019-03-09T02:44:01.162Z,7.30
2019-03-09T02:46:30.648Z,7.30
2019-03-09T02:49:00.366Z,7.30
2019-03-09T02:51:29.888Z,7.40
2019-03-09T02:53:59.419Z,7.40
2019-03-09T02:56:28.824Z,7.40
2019-03-09T02:58:58.399Z,7.40
2019-03-09T03:01:32.577Z,7.40
2019-03-09T03:04:02.374Z,7.50
2019-03-09T03:06:31.953Z,7.50
2019-03-09T03:09:01.440Z,7.60
2019-03-09T03:11:30.860Z,7.60
2019-03-09T03:14:00.438Z,7.60
2019-03-09T03:16:29.789Z,7.60
2019-03-09T03:18:59.490Z,7.70
2019-03-09T03:21:28.919Z,7.70
2019-03-09T03:23:58.633Z,7.70
2019-03-09T03:26:28.530Z,7.70
2019-03-09T03:28:57.930Z,7.70
2019-03-09T03:31:27.583Z,7.70
2019-03-09T03:33:57.397Z,7.70
2019-03-09T03:36:26.992Z,7.70
2019-03-09T03:38:56.635Z,7.70
2019-03-09T03:41:26.048Z,7.70
2019-03-09T03:43:55.512Z,7.70
2019-03-09T03:46:24.922Z,7.70
2019-03-09T03:49:13.913Z,7.70
2019-03-09T03:52:04.312Z,7.60
2019-03-09T03:54:55.052Z,7.60
2019-03-09T03:57:45.478Z,7.60
2019-03-09T04:00:54.140Z,7.50
2019-03-09T04:04:02.459Z,7.60
2019-03-09T04:06:53.097Z,7.50
2019-03-09T04:09:43.619Z,7.50
2019-03-09T04:12:34.026Z,7.50
2019-03-09T04:15:24.474Z,7.50
2019-03-09T04:18:14.968Z,7.60
2019-03-09T04:21:23.264Z,7.60
2019-03-09T04:24:31.574Z,7.60
2019-03-09T04:27:14.621Z,7.70
2019-03-09T04:29:56.303Z,7.70
2019-03-09T04:32:38.622Z,7.70
2019-03-09T04:35:20.989Z,7.70
2019-03-09T04:38:02.754Z,7.70
2019-03-09T04:40:44.827Z,7.70
2019-03-09T04:43:26.506Z,7.70
2019-03-09T04:46:08.684Z,7.70
2019-03-09T04:48:48.492Z,7.70
2019-03-09T04:51:37.385Z,7.70
2019-03-09T04:54:28.076Z,7.70
2019-03-09T04:57:18.500Z,7.70
2019-03-09T05:00:29.844Z,7.70
2019-03-09T05:03:39.279Z,7.70
2019-03-09T05:06:28.107Z,7.70
2019-03-09T05:09:37.960Z,7.70
2019-03-09T05:12:28.387Z,7.70
2019-03-09T05:15:19.133Z,7.70
2019-03-09T05:18:09.542Z,7.70
2019-03-09T05:21:18.076Z,7.70
2019-03-09T05:24:08.482Z,7.70
2019-03-09T05:27:09.518Z,7.70
2019-03-09T05:29:51.595Z,7.70
2019-03-09T05:32:33.560Z,7.80
2019-03-09T05:35:15.622Z,7.70
2019-03-09T05:37:57.109Z,7.70
2019-03-09T05:40:39.641Z,7.80
2019-03-09T05:43:21.524Z,7.80
2019-03-09T05:46:03.664Z,7.80
2019-03-09T05:48:45.375Z,7.80
2019-03-09T05:51:26.985Z,7.80
2019-03-09T05:54:07.150Z,7.80
2019-03-09T05:56:56.350Z,7.90
2019-03-09T05:59:47.285Z,7.90
2019-03-09T06:02:37.729Z,7.90
2019-03-09T06:05:49.009Z,7.90
2019-03-09T06:08:39.467Z,7.90
2019-03-09T06:11:30.147Z,7.90
2019-03-09T06:14:20.553Z,7.90
2019-03-09T06:17:11.224Z,8.00
2019-03-09T06:20:01.637Z,8.00
2019-03-09T06:22:52.363Z,8.00
2019-03-09T06:25:35.243Z,8.00
2019-03-09T06:28:16.856Z,8.00
2019-03-09T06:30:58.459Z,8.00
2019-03-09T06:33:40.722Z,8.10
2019-03-09T06:36:22.603Z,8.10
2019-03-09T06:39:04.897Z,8.20
2019-03-09T06:41:46.686Z,8.20
2019-03-09T06:44:28.859Z,8.30
2019-03-09T06:47:10.863Z,8.40
2019-03-09T06:49:52.413Z,8.50
2019-03-09T06:52:34.033Z,8.60
2019-03-09T06:55:15.673Z,8.60
2019-03-09T06:57:57.988Z,8.70
2019-03-09T07:00:39.725Z,8.70
2019-03-09T07:03:19.586Z,8.80
2019-03-09T07:06:08.362Z,8.90
2019-03-09T07:08:59.393Z,8.70
2019-03-09T07:11:49.795Z,8.90
2019-03-09T07:14:59.871Z,9.00
2019-03-09T07:20:49.754Z,9.00
2019-03-09T07:23:40.501Z,8.90
2019-03-09T07:26:23.958Z,8.80
2019-03-09T07:29:06.217Z,8.70
2019-03-09T07:31:48.730Z,8.40
2019-03-09T07:34:30.385Z,8.30
2019-03-09T07:37:11.884Z,8.10
2019-03-09T07:39:53.315Z,8.10
2019-03-09T07:42:35.309Z,8.00
2019-03-09T07:45:17.240Z,8.10
2019-03-09T07:47:59.246Z,8.10
2019-03-09T07:50:41.170Z,8.10
2019-03-09T07:53:22.622Z,8.10
2019-03-09T07:56:04.651Z,8.10
2019-03-09T07:58:46.628Z,8.10
2019-03-09T08:01:28.271Z,8.20
2019-03-09T08:04:10.874Z,8.20
2019-03-09T08:06:53.013Z,8.30
2019-03-09T08:09:35.304Z,8.30
2019-03-09T08:12:17.001Z,8.40
2019-03-09T08:14:58.525Z,8.50
2019-03-09T08:17:40.479Z,8.50
2019-03-09T08:20:22.184Z,8.60
2019-03-09T08:23:04.722Z,8.60
2019-03-09T08:25:46.657Z,8.70
2019-03-09T08:28:28.142Z,8.70
2019-03-09T08:31:09.854Z,8.80
2019-03-09T08:33:52.005Z,8.80
2019-03-09T08:36:35.099Z,8.80
2019-03-09T08:39:17.519Z,8.90
2019-03-09T08:41:59.766Z,8.90
2019-03-09T08:44:41.704Z,9.00
2019-03-09T08:47:23.653Z,9.10
2019-03-09T08:50:05.747Z,9.10
2019-03-09T08:52:47.606Z,9.10
2019-03-09T08:55:29.742Z,9.20
2019-03-09T08:58:11.920Z,9.20
2019-03-09T09:00:53.706Z,9.30
2019-03-09T09:03:35.504Z,9.30
2019-03-09T09:06:17.821Z,9.40
2019-03-09T09:09:00.173Z,9.50
2019-03-09T09:11:41.608Z,9.50
2019-03-09T09:14:23.185Z,9.60
2019-03-09T09:17:04.541Z,9.60
2019-03-09T09:19:46.721Z,9.70
2019-03-09T09:22:28.917Z,9.70
2019-03-09T09:25:10.875Z,9.70
2019-03-09T09:27:52.938Z,9.60
2019-03-09T09:30:35.199Z,9.60
2019-03-09T09:33:16.530Z,9.60
2019-03-09T09:35:58.331Z,9.80
2019-03-09T09:38:40.591Z,9.80
2019-03-09T09:41:22.959Z,9.90
2019-03-09T09:44:05.066Z,10.00
2019-03-09T09:46:46.620Z,10.00
2019-03-09T09:49:28.743Z,10.10
2019-03-09T09:51:58.223Z,10.10
2019-03-09T09:54:27.756Z,10.10
2019-03-09T09:56:57.315Z,10.10
2019-03-09T09:59:27.219Z,10.10
2019-03-09T10:01:56.867Z,10.10
2019-03-09T10:04:26.319Z,10.20
2019-03-09T10:06:56.132Z,10.30
2019-03-09T10:09:25.669Z,10.30
2019-03-09T10:11:55.200Z,10.40
2019-03-09T10:14:24.726Z,10.40
2019-03-09T10:16:54.502Z,10.40
2019-03-09T10:19:24.304Z,10.50
2019-03-09T10:21:53.909Z,10.50
2019-03-09T10:24:23.453Z,10.50
2019-03-09T10:26:53.271Z,10.50
2019-03-09T10:29:23.088Z,10.50
2019-03-09T10:31:52.633Z,10.50
2019-03-09T10:34:22.365Z,10.50
2019-03-09T10:36:52.132Z,10.50
2019-03-09T10:39:21.579Z,10.50
2019-03-09T10:41:51.227Z,10.50
2019-03-09T10:44:20.764Z,10.40
2019-03-09T10:46:50.302Z,10.40
2019-03-09T10:49:21.652Z,10.40
2019-03-09T10:51:51.328Z,10.40
2019-03-09T10:54:21.233Z,10.40
2019-03-09T10:56:50.998Z,10.40
2019-03-09T10:59:20.522Z,10.40
2019-03-09T11:01:50.272Z,10.40
2019-03-09T11:04:27.666Z,10.40
2019-03-09T11:06:51.867Z,10.50
2019-03-09T11:09:21.463Z,10.60
2019-03-09T11:11:51.325Z,10.60
2019-03-09T11:14:20.928Z,10.70
2019-03-09T11:16:50.468Z,10.70
2019-03-09T11:19:20.382Z,10.70
2019-03-09T11:21:49.893Z,10.70
2019-03-09T11:24:20.535Z,10.70
2019-03-09T11:26:50.341Z,10.70
2019-03-09T11:29:20.533Z,10.70
2019-03-09T11:31:50.308Z,10.80
2019-03-09T11:34:20.615Z,10.80
2019-03-09T11:36:50.367Z,10.80
2019-03-09T11:39:20.479Z,10.80
2019-03-09T11:41:50.310Z,10.90
2019-03-09T11:44:20.544Z,10.90
2019-03-09T11:46:50.239Z,10.90
2019-03-09T11:49:20.524Z,10.90
2019-03-09T11:51:50.003Z,11.00
2019-03-09T11:54:20.692Z,11.10
2019-03-09T11:56:50.324Z,11.00
2019-03-09T11:59:20.567Z,11.10
2019-03-09T12:01:50.324Z,11.20
2019-03-09T12:04:20.571Z,11.20
2019-03-09T12:06:50.376Z,11.20
2019-03-09T12:09:20.577Z,11.30
2019-03-09T12:11:59.288Z,11.20
2019-03-09T12:14:28.755Z,11.20
2019-03-09T12:16:58.367Z,11.20
2019-03-09T12:19:27.874Z,11.30
2019-03-09T12:21:57.531Z,11.40
2019-03-09T12:24:26.984Z,11.40
2019-03-09T12:26:56.574Z,11.40
2019-03-09T12:29:26.588Z,11.50
2019-03-09T12:31:56.428Z,11.60
2019-03-09T12:34:25.865Z,11.60
2019-03-09T12:36:55.476Z,11.60
2019-03-09T12:39:25.540Z,11.70
2019-03-09T12:41:55.368Z,11.80
2019-03-09T12:44:24.893Z,12.00
2019-03-09T12:46:54.412Z,12.00
2019-03-09T12:49:23.928Z,12.00
2019-03-09T12:51:53.531Z,12.10
2019-03-09T12:54:23.049Z,12.00
2019-03-09T12:56:52.735Z,12.00
2019-03-09T12:59:22.560Z,12.10
2019-03-09T13:01:52.439Z,12.20
2019-03-09T13:04:22.045Z,12.20
2019-03-09T13:06:51.599Z,12.20
2019-03-09T13:09:21.217Z,12.10
2019-03-09T13:11:50.778Z,12.00
2019-03-09T13:14:20.838Z,12.00
2019-03-09T13:16:50.452Z,12.00
2019-03-09T13:19:20.807Z,12.00
2019-03-09T13:21:50.583Z,12.10
2019-03-09T13:24:20.766Z,12.10
2019-03-09T13:26:50.426Z,12.00
2019-03-09T13:29:20.740Z,12.00
2019-03-09T13:31:50.459Z,12.00
2019-03-09T13:34:20.739Z,11.90
2019-03-09T13:36:50.412Z,11.80
2019-03-09T13:39:20.763Z,11.80
2019-03-09T13:41:50.439Z,11.80
2019-03-09T13:44:20.800Z,11.80
2019-03-09T13:46:50.505Z,11.70
2019-03-09T13:49:20.778Z,11.70
2019-03-09T13:51:50.478Z,11.60
2019-03-09T13:54:20.744Z,11.60
2019-03-09T13:56:50.638Z,11.60
2019-03-09T13:59:20.856Z,11.50
2019-03-09T14:01:50.577Z,11.50
2019-03-09T14:04:20.857Z,11.50
2019-03-09T14:06:50.476Z,11.40
2019-03-09T14:09:20.855Z,11.40
2019-03-09T14:11:50.489Z,11.40
2019-03-09T14:14:20.781Z,11.30
2019-03-09T14:16:50.459Z,11.30
2019-03-09T14:19:20.790Z,11.30
2019-03-09T14:21:50.523Z,11.20
2019-03-09T14:24:22.534Z,11.20
2019-03-09T14:26:52.153Z,11.20
2019-03-09T14:29:21.811Z,11.10
2019-03-09T14:31:51.528Z,11.10
2019-03-09T14:34:21.101Z,11.10
2019-03-09T14:36:50.550Z,11.10
2019-03-09T14:39:20.822Z,11.10
2019-03-09T14:41:50.203Z,11.10
2019-03-09T14:44:20.841Z,11.10
2019-03-09T14:46:50.519Z,11.10
2019-03-09T14:49:20.781Z,11.10
2019-03-09T14:51:50.509Z,11.10
2019-03-09T14:54:20.796Z,11.20
2019-03-09T14:56:50.479Z,11.20
2019-03-09T14:59:20.843Z,11.20
2019-03-09T15:01:50.513Z,11.20
2019-03-09T15:04:20.893Z,11.10
2019-03-09T15:06:50.606Z,11.10
2019-03-09T15:09:20.960Z,11.10
2019-03-09T15:11:50.517Z,11.10
2019-03-09T15:14:20.834Z,11.20
2019-03-09T15:16:50.513Z,11.20
2019-03-09T15:19:20.859Z,11.20
2019-03-09T15:21:50.534Z,11.20
2019-03-09T15:24:20.890Z,11.20
2019-03-09T15:26:50.570Z,11.20
2019-03-09T15:29:20.950Z,11.20
2019-03-09T15:31:50.292Z,11.20
2019-03-09T15:34:20.947Z,11.10
2019-03-09T15:36:50.623Z,11.10
2019-03-09T15:39:20.827Z,11.10
2019-03-09T15:41:50.306Z,11.10
2019-03-09T15:44:20.932Z,11.10
2019-03-09T15:46:50.692Z,11.10
2019-03-09T15:49:20.900Z,11.10
2019-03-09T15:52:10.425Z,11.10
2019-03-09T15:55:20.314Z,11.10
2019-03-09T15:58:30.235Z,11.10
2019-03-09T16:01:20.792Z,11.10
2019-03-09T16:04:09.674Z,11.00
2019-03-09T16:06:58.568Z,10.90
2019-03-09T16:09:49.275Z,10.80
2019-03-09T16:12:57.563Z,10.60
2019-03-09T16:16:06.164Z,10.50
2019-03-09T16:18:56.602Z,10.30
2019-03-09T16:22:05.165Z,10.20
2019-03-09T16:24:55.634Z,10.20
2019-03-09T16:27:46.219Z,10.20
2019-03-09T16:30:29.451Z,10.20
2019-03-09T16:33:11.173Z,10.20
2019-03-09T16:35:52.729Z,10.20
2019-03-09T16:38:34.923Z,10.30
2019-03-09T16:41:17.232Z,10.30
2019-03-09T16:43:57.372Z,10.30
2019-03-09T16:46:48.100Z,10.30
2019-03-09T16:49:56.318Z,10.30
2019-03-09T16:52:46.915Z,10.30
2019-03-09T16:55:55.503Z,10.30
2019-03-09T16:59:03.791Z,10.30
2019-03-09T17:01:54.473Z,10.30
2019-03-09T17:04:45.450Z,10.30
2019-03-09T17:07:35.987Z,10.30
2019-03-09T17:10:26.424Z,10.30
2019-03-09T17:13:16.865Z,10.30
2019-03-09T17:19:40.688Z,10.40
2019-03-09T17:22:33.236Z,10.40
2019-03-09T17:25:41.374Z,10.40
2019-03-09T17:28:23.588Z,10.40
2019-03-09T17:31:05.791Z,10.20
2019-03-09T17:33:47.676Z,10.40
2019-03-09T17:36:29.806Z,10.50
2019-03-09T17:39:11.665Z,10.50
2019-03-09T17:41:53.854Z,10.50
2019-03-09T17:44:36.122Z,10.50
2019-03-09T17:47:18.628Z,10.50
2019-03-09T17:50:00.505Z,10.50
2019-03-09T17:52:42.879Z,10.50
2019-03-09T17:55:27.004Z,10.40
2019-03-09T17:58:09.582Z,10.50
2019-03-09T18:00:51.485Z,10.40
2019-03-09T18:03:34.811Z,10.40
2019-03-09T18:06:16.520Z,10.40
2019-03-09T18:08:58.759Z,10.40
2019-03-09T18:11:40.548Z,10.40
2019-03-09T18:14:22.505Z,10.40
2019-03-09T18:17:03.994Z,10.40
2019-03-09T18:19:45.656Z,10.40
2019-03-09T18:22:27.491Z,10.40
2019-03-09T18:25:09.124Z,10.40
2019-03-09T18:27:51.410Z,10.40
2019-03-09T18:30:34.036Z,10.30
2019-03-09T18:33:15.672Z,10.30
2019-03-09T18:35:57.397Z,10.30
2019-03-09T18:38:39.643Z,10.30
2019-03-09T18:41:21.375Z,10.30
2019-03-09T18:44:04.030Z,10.30
2019-03-09T18:46:45.737Z,10.30
2019-03-09T18:49:27.620Z,10.30
2019-03-09T18:52:10.100Z,10.40
2019-03-09T18:54:52.151Z,10.40
2019-03-09T18:57:34.301Z,10.40
2019-03-09T19:00:16.050Z,10.40
2019-03-09T19:02:58.538Z,10.40
2019-03-09T19:05:41.015Z,10.40
2019-03-09T19:08:23.283Z,10.50
2019-03-09T19:11:05.704Z,10.50
2019-03-09T19:13:47.852Z,10.40
2019-03-09T19:16:30.111Z,10.50
2019-03-09T19:19:11.776Z,10.50
2019-03-09T19:24:54.170Z,10.50
2019-03-09T19:27:44.876Z,10.50
2019-03-09T19:30:27.111Z,10.60
2019-03-09T19:33:09.784Z,10.60
2019-03-09T19:35:51.907Z,10.60
2019-03-09T19:38:33.784Z,10.60
2019-03-09T19:41:15.792Z,10.60
2019-03-09T19:43:57.926Z,10.60
2019-03-09T19:46:39.909Z,10.60
2019-03-09T19:49:22.304Z,10.60
2019-03-09T19:52:04.334Z,11.60
2019-03-09T19:54:49.724Z,10.60
2019-03-09T19:57:31.913Z,10.70
2019-03-09T20:00:14.477Z,10.70
2019-03-09T20:02:56.683Z,10.70
2019-03-09T20:05:38.840Z,10.80
2019-03-09T20:08:20.780Z,10.80
2019-03-09T20:11:03.044Z,10.70
2019-03-09T20:13:45.362Z,10.70
2019-03-09T20:16:27.721Z,10.70
2019-03-09T20:19:09.241Z,10.70
2019-03-09T20:21:50.658Z,10.80
2019-03-09T20:24:33.577Z,10.80
2019-03-09T20:27:15.782Z,10.80
2019-03-09T20:29:58.001Z,10.90
2019-03-09T20:32:40.179Z,10.90
2019-03-09T20:35:22.395Z,11.00
2019-03-09T20:38:04.752Z,11.00
2019-03-09T20:40:46.306Z,11.00
2019-03-09T20:43:27.967Z,11.10
2019-03-09T20:46:09.831Z,11.10
2019-03-09T20:48:54.449Z,11.10
2019-03-09T20:51:37.469Z,11.20
2019-03-09T20:54:19.412Z,11.20
2019-03-09T20:57:01.063Z,11.20
2019-03-09T20:59:42.944Z,11.20
2019-03-09T21:02:24.691Z,11.20
2019-03-09T21:05:06.852Z,11.30
2019-03-09T21:07:48.711Z,11.20
2019-03-09T21:10:31.352Z,11.20
2019-03-09T21:13:13.658Z,11.20
2019-03-09T21:15:55.873Z,11.10
2019-03-09T21:18:37.439Z,11.10
2019-03-09T21:21:20.069Z,11.10
2019-03-09T21:24:02.012Z,11.20
2019-03-09T21:26:43.809Z,11.20
2019-03-09T21:29:26.050Z,11.20
2019-03-09T21:32:08.047Z,11.20
2019-03-09T21:34:50.304Z,11.20
2019-03-09T21:37:31.747Z,11.20
2019-03-09T21:40:13.536Z,11.20
2019-03-09T21:42:55.135Z,11.20
2019-03-09T21:45:36.655Z,11.30
2019-03-09T21:48:18.337Z,11.30
2019-03-09T21:50:59.875Z,11.30
2019-03-09T21:53:41.459Z,11.30
2019-03-09T21:56:23.832Z,11.20
2019-03-09T21:59:05.270Z,11.20
2019-03-09T22:01:47.502Z,11.20
2019-03-09T22:04:27.287Z,11.30
2019-03-09T22:07:16.182Z,11.20
2019-03-09T22:10:25.895Z,11.30
2019-03-09T22:13:28.039Z,11.20
2019-03-09T22:16:26.245Z,11.20
2019-03-09T22:19:16.678Z,11.20
2019-03-09T22:22:07.134Z,11.20
2019-03-09T22:24:57.940Z,11.20
2019-03-09T22:27:48.365Z,11.20
2019-03-09T22:30:50.123Z,11.20
2019-03-09T22:33:32.321Z,11.20
2019-03-09T22:36:13.988Z,11.20
2019-03-09T22:38:56.251Z,11.20
2019-03-09T22:41:37.817Z,11.20
2019-03-09T22:44:19.302Z,11.20
2019-03-09T22:47:10.712Z,11.20
2019-03-09T22:49:44.321Z,11.20
2019-03-09T22:52:26.078Z,11.20
2019-03-09T22:55:07.866Z,11.20
2019-03-09T22:57:50.375Z,11.20
2019-03-09T23:00:32.645Z,11.20
2019-03-09T23:03:15.109Z,11.20
2019-03-09T23:05:57.153Z,11.20
2019-03-09T23:08:39.472Z,11.20
2019-03-09T23:11:21.167Z,11.10
2019-03-09T23:14:02.940Z,11.10
2019-03-09T23:16:45.028Z,11.10
2019-03-09T23:19:26.997Z,11.10
2019-03-09T23:22:09.121Z,11.10
2019-03-09T23:24:51.097Z,11.10
2019-03-09T23:27:34.325Z,11.10
2019-03-09T23:30:15.782Z,11.10
2019-03-09T23:32:57.746Z,11.10
2019-03-09T23:35:39.503Z,11.10
2019-03-09T23:38:21.448Z,11.10
2019-03-09T23:41:03.168Z,11.00
2019-03-09T23:43:45.005Z,11.00
2019-03-09T23:46:24.889Z,11.10
2019-03-09T23:49:13.829Z,11.10
2019-03-09T23:52:04.292Z,11.00
2019-03-09T23:54:54.958Z,11.00
2019-03-09T23:58:03.283Z,11.00
